createdAt,value
2022-10-04T00:00:25.513Z,18.71
2022-10-04T00:02:57.034Z,18.62
2022-10-04T00:05:25.396Z,18.61
2022-10-04T00:08:02.537Z,18.54
2022-10-04T00:10:34.409Z,18.57
2022-10-04T00:13:05.074Z,18.53
2022-10-04T00:15:39.256Z,18.55
2022-10-04T00:18:12.172Z,18.58
2022-10-04T00:20:56.706Z,18.53
2022-10-04T00:23:23.274Z,18.49
2022-10-04T00:25:56.651Z,18.45
2022-10-04T00:28:26.459Z,18.45
2022-10-04T00:31:11.572Z,18.45
2022-10-04T00:33:41.467Z,18.47
2022-10-04T00:36:26.132Z,18.46
2022-10-04T00:39:14.777Z,18.44
2022-10-04T00:41:47.618Z,18.37
2022-10-04T00:44:29.682Z,18.36
2022-10-04T00:46:59.968Z,18.42
2022-10-04T00:49:31.578Z,18.39
2022-10-04T00:52:07.612Z,18.35
2022-10-04T00:54:41.617Z,18.34
2022-10-04T00:57:17.025Z,18.32
2022-10-04T00:59:48.772Z,18.42
2022-10-04T01:02:22.135Z,18.39
2022-10-04T01:04:57.965Z,18.28
2022-10-04T01:07:33.386Z,18.28
2022-10-04T01:10:24.499Z,18.33
2022-10-04T01:13:12.746Z,18.33
2022-10-04T01:15:52.378Z,18.34
2022-10-04T01:18:19.027Z,18.27
2022-10-04T01:20:48.729Z,18.28
2022-10-04T01:23:44.687Z,18.26
2022-10-04T01:26:26.985Z,18.28
2022-10-04T01:29:06.346Z,18.20
2022-10-04T01:31:35.815Z,18.08
2022-10-04T01:34:03.412Z,18.05
2022-10-04T01:36:30.610Z,18.07
2022-10-04T01:38:57.748Z,18.03
2022-10-04T01:41:37.493Z,18.15
2022-10-04T01:44:06.827Z,17.99
2022-10-04T01:46:36.654Z,17.98
2022-10-04T01:49:10.582Z,18.01
2022-10-04T01:51:44.434Z,17.97
2022-10-04T01:54:23.475Z,17.98
2022-10-04T01:57:02.503Z,17.88
2022-10-04T02:00:05.659Z,17.86
2022-10-04T02:02:53.432Z,17.79
2022-10-04T02:05:30.115Z,17.75
2022-10-04T02:07:58.231Z,17.79
2022-10-04T02:10:26.332Z,17.75
2022-10-04T02:12:54.852Z,17.71
2022-10-04T02:15:26.733Z,17.75
2022-10-04T02:17:55.968Z,17.74
2022-10-04T02:20:26.710Z,17.74
2022-10-04T02:23:03.322Z,17.82
2022-10-04T02:25:30.918Z,17.88
2022-10-04T02:27:57.989Z,17.77
2022-10-04T02:30:25.432Z,17.69
2022-10-04T02:32:57.779Z,17.70
2022-10-04T02:35:29.564Z,17.62
2022-10-04T02:38:03.028Z,17.59
2022-10-04T02:40:40.788Z,17.47
2022-10-04T02:43:15.096Z,17.49
2022-10-04T02:45:55.565Z,17.48
2022-10-04T02:48:31.208Z,17.55
2022-10-04T02:51:06.739Z,17.52
2022-10-04T02:54:03.567Z,17.44
2022-10-04T02:56:32.870Z,17.47
2022-10-04T02:59:07.109Z,17.43
2022-10-04T03:01:54.250Z,17.42
2022-10-04T03:04:25.650Z,17.37
2022-10-04T03:06:52.618Z,17.34
2022-10-04T03:09:26.148Z,17.40
2022-10-04T03:11:56.512Z,17.38
2022-10-04T03:14:26.865Z,17.49
2022-10-04T03:16:55.728Z,17.43
2022-10-04T03:19:24.780Z,17.32
2022-10-04T03:21:55.030Z,17.34
2022-10-04T03:24:30.988Z,17.32
2022-10-04T03:27:00.504Z,17.32
2022-10-04T03:29:30.335Z,17.31
2022-10-04T03:32:00.367Z,17.29
2022-10-04T03:34:41.656Z,17.41
2022-10-04T03:37:14.263Z,17.44
2022-10-04T03:39:47.179Z,17.35
2022-10-04T03:42:36.067Z,17.35
2022-10-04T03:45:15.701Z,17.20
2022-10-04T03:47:46.814Z,17.21
2022-10-04T03:50:19.782Z,17.23
2022-10-04T03:52:54.714Z,17.25
2022-10-04T03:55:24.771Z,17.19
2022-10-04T03:57:52.147Z,17.22
2022-10-04T04:00:19.514Z,17.14
2022-10-04T04:02:56.722Z,16.97
2022-10-04T04:05:31.689Z,16.91
2022-10-04T04:08:14.787Z,16.94
2022-10-04T04:10:52.557Z,16.87
2022-10-04T04:13:31.278Z,16.78
2022-10-04T04:16:01.852Z,16.77
2022-10-04T04:18:32.604Z,16.75
2022-10-04T04:21:02.280Z,16.70
2022-10-04T04:23:32.974Z,16.68
2022-10-04T04:26:39.307Z,16.61
2022-10-04T04:29:12.248Z,16.62
2022-10-04T04:31:46.690Z,16.62
2022-10-04T04:34:25.610Z,16.68
2022-10-04T04:36:59.152Z,16.74
2022-10-04T04:39:40.819Z,16.66
2022-10-04T04:42:10.608Z,16.67
2022-10-04T04:44:54.882Z,16.68
2022-10-04T04:47:29.465Z,16.72
2022-10-04T04:49:58.925Z,16.61
2022-10-04T04:52:28.913Z,16.58
2022-10-04T04:54:56.479Z,16.62
2022-10-04T04:57:23.545Z,16.56
2022-10-04T04:59:55.682Z,16.50
2022-10-04T05:02:28.548Z,16.42
2022-10-04T05:05:17.097Z,16.38
2022-10-04T05:07:43.805Z,16.39
2022-10-04T05:10:33.682Z,16.24
2022-10-04T05:13:02.031Z,16.23
2022-10-04T05:15:36.283Z,16.18
2022-10-04T05:18:17.720Z,16.27
2022-10-04T05:20:50.050Z,16.25
2022-10-04T05:23:16.879Z,16.11
2022-10-04T05:25:43.801Z,16.21
2022-10-04T05:28:12.911Z,16.11
2022-10-04T05:31:17.478Z,16.04
2022-10-04T05:33:50.375Z,16.15
2022-10-04T05:36:25.986Z,16.18
2022-10-04T05:39:12.710Z,16.20
2022-10-04T05:41:56.622Z,16.14
2022-10-04T05:44:26.219Z,16.19
2022-10-04T05:46:56.295Z,16.26
2022-10-04T05:49:26.194Z,16.29
2022-10-04T05:52:01.148Z,16.38
2022-10-04T05:54:31.439Z,16.34
2022-10-04T05:57:13.104Z,16.22
2022-10-04T06:00:14.792Z,16.20
2022-10-04T06:03:10.414Z,16.19
2022-10-04T06:05:43.047Z,16.32
2022-10-04T06:08:22.326Z,16.34
2022-10-04T06:11:27.159Z,16.40
2022-10-04T06:14:31.155Z,16.50
2022-10-04T06:17:32.087Z,16.62
2022-10-04T06:20:17.041Z,16.77
2022-10-04T06:22:48.997Z,16.76
2022-10-04T06:25:30.320Z,16.80
2022-10-04T06:28:14.980Z,16.89
2022-10-04T06:31:20.573Z,16.93
2022-10-04T06:33:47.146Z,16.90
2022-10-04T06:36:47.937Z,16.97
2022-10-04T06:39:49.390Z,17.02
2022-10-04T06:42:34.601Z,17.12
2022-10-04T06:45:17.881Z,17.19
2022-10-04T06:48:26.213Z,17.30
2022-10-04T06:51:05.375Z,17.29
2022-10-04T06:53:41.163Z,17.43
2022-10-04T06:56:53.498Z,17.55
2022-10-04T06:59:50.373Z,17.67
2022-10-04T07:02:25.711Z,17.66
2022-10-04T07:05:13.007Z,17.77
2022-10-04T07:07:47.613Z,17.78
2022-10-04T07:10:33.280Z,17.85
2022-10-04T07:13:13.014Z,17.92
2022-10-04T07:15:58.585Z,17.97
2022-10-04T07:18:50.995Z,18.00
2022-10-04T07:21:18.755Z,18.08
2022-10-04T07:24:03.907Z,18.09
2022-10-04T07:26:49.791Z,18.07
2022-10-04T07:29:28.033Z,18.13
2022-10-04T07:32:17.716Z,18.16
2022-10-04T07:34:54.405Z,18.25
2022-10-04T07:37:21.859Z,18.29
2022-10-04T07:40:01.196Z,18.32
2022-10-04T07:42:30.848Z,18.37
2022-10-04T07:45:17.878Z,18.49
2022-10-04T07:47:45.060Z,18.44
2022-10-04T07:50:34.394Z,18.57
2022-10-04T07:53:21.290Z,18.68
2022-10-04T07:55:57.160Z,18.62
2022-10-04T07:58:26.900Z,18.64
2022-10-04T08:01:01.767Z,18.59
2022-10-04T08:03:50.261Z,18.66
2022-10-04T08:06:35.779Z,18.65
2022-10-04T08:09:14.697Z,18.82
2022-10-04T08:12:07.545Z,18.81
2022-10-04T08:14:40.434Z,18.83
2022-10-04T08:17:20.185Z,18.83
2022-10-04T08:20:07.904Z,18.92
2022-10-04T08:22:37.941Z,18.92
2022-10-04T08:25:32.941Z,19.03
2022-10-04T08:28:21.480Z,19.05
2022-10-04T08:31:32.136Z,19.11
2022-10-04T08:34:37.462Z,19.21
2022-10-04T08:37:36.446Z,19.25
2022-10-04T08:40:25.013Z,19.36
2022-10-04T08:43:03.828Z,19.45
2022-10-04T08:46:04.720Z,19.59
2022-10-04T08:48:58.917Z,19.65
2022-10-04T08:51:47.026Z,19.74
2022-10-04T08:55:02.167Z,19.92
2022-10-04T08:57:50.981Z,20.06
2022-10-04T09:00:35.641Z,20.29
2022-10-04T09:03:27.087Z,20.50
2022-10-04T09:05:56.690Z,20.59
2022-10-04T09:08:29.251Z,20.71
2022-10-04T09:11:19.082Z,20.76
2022-10-04T09:13:57.781Z,20.77
2022-10-04T09:16:37.839Z,20.94
2022-10-04T09:19:29.928Z,21.19
2022-10-04T09:21:57.022Z,21.28
2022-10-04T09:24:55.048Z,21.31
2022-10-04T09:27:55.973Z,21.38
2022-10-04T09:30:33.168Z,21.43
2022-10-04T09:33:05.901Z,21.39
2022-10-04T09:35:50.748Z,21.33
2022-10-04T09:38:35.979Z,21.32
2022-10-04T09:41:22.295Z,21.33
2022-10-04T09:44:01.382Z,21.52
2022-10-04T09:46:56.674Z,21.70
2022-10-04T09:49:36.912Z,21.69
2022-10-04T09:52:22.335Z,21.72
2022-10-04T09:55:08.052Z,21.66
2022-10-04T09:58:12.525Z,21.73
2022-10-04T10:00:43.573Z,21.91
2022-10-04T10:03:32.209Z,22.12
2022-10-04T10:06:17.650Z,22.28
2022-10-04T10:08:53.361Z,22.47
2022-10-04T10:12:12.581Z,22.41
2022-10-04T10:14:42.161Z,22.25
2022-10-04T10:17:46.068Z,22.45
2022-10-04T10:20:18.914Z,22.58
2022-10-04T10:23:04.268Z,22.64
2022-10-04T10:25:43.697Z,22.56
2022-10-04T10:28:26.074Z,22.75
2022-10-04T10:30:59.050Z,22.80
2022-10-04T10:34:14.001Z,23.12
2022-10-04T10:37:16.045Z,23.35
2022-10-04T10:40:04.488Z,23.48
2022-10-04T10:42:43.229Z,23.31
2022-10-04T10:45:15.853Z,23.40
2022-10-04T10:48:04.957Z,23.62
2022-10-04T10:50:59.974Z,23.65
2022-10-04T10:54:08.459Z,23.77
2022-10-04T10:56:57.986Z,23.84
2022-10-04T10:59:50.549Z,24.07
2022-10-04T11:02:42.209Z,23.97
2022-10-04T11:05:35.047Z,23.85
2022-10-04T11:08:30.080Z,23.94
2022-10-04T11:11:30.541Z,23.88
2022-10-04T11:14:33.223Z,23.67
2022-10-04T11:17:20.934Z,23.51
2022-10-04T11:20:24.410Z,23.73
2022-10-04T11:23:16.182Z,23.74
2022-10-04T11:25:57.303Z,23.73
2022-10-04T11:28:49.269Z,23.54
2022-10-04T11:31:34.718Z,23.55
2022-10-04T11:34:39.996Z,23.53
2022-10-04T11:37:34.717Z,23.56
2022-10-04T11:40:39.401Z,23.44
2022-10-04T11:43:27.736Z,23.31
2022-10-04T11:46:18.195Z,23.28
2022-10-04T11:48:53.338Z,23.36
2022-10-04T11:51:32.085Z,23.43
2022-10-04T11:54:21.553Z,23.43
2022-10-04T11:57:10.031Z,23.40
2022-10-04T11:59:55.594Z,23.43
2022-10-04T12:02:55.881Z,23.38
2022-10-04T12:06:01.772Z,23.17
2022-10-04T12:08:34.017Z,23.11
2022-10-04T12:11:17.187Z,23.22
2022-10-04T12:14:10.598Z,23.29
2022-10-04T12:16:58.456Z,23.24
2022-10-04T12:19:58.668Z,23.24
2022-10-04T12:22:45.613Z,23.29
2022-10-04T12:25:53.722Z,23.25
2022-10-04T12:28:52.006Z,23.26
2022-10-04T12:31:28.536Z,23.27
2022-10-04T12:34:01.224Z,23.32
2022-10-04T12:36:34.320Z,23.28
2022-10-04T12:39:27.193Z,23.31
2022-10-04T12:42:28.185Z,23.31
2022-10-04T12:45:20.165Z,23.35
2022-10-04T12:48:33.016Z,23.37
2022-10-04T12:51:20.519Z,23.28
2022-10-04T12:54:01.424Z,23.28
2022-10-04T12:56:32.088Z,23.32
2022-10-04T12:59:20.631Z,23.33
2022-10-04T13:02:35.944Z,23.44
2022-10-04T13:05:11.661Z,23.38
2022-10-04T13:07:41.221Z,23.40
2022-10-04T13:10:29.240Z,23.41
2022-10-04T13:13:26.763Z,23.47
2022-10-04T13:19:17.392Z,23.46
2022-10-04T13:22:37.559Z,23.38
2022-10-04T13:25:26.072Z,23.40
2022-10-04T13:28:20.775Z,23.40
2022-10-04T13:30:54.652Z,23.46
2022-10-04T13:33:58.238Z,23.49
2022-10-04T13:36:54.274Z,23.52
2022-10-04T13:39:26.784Z,23.49
2022-10-04T13:42:24.401Z,23.51
2022-10-04T13:45:25.078Z,23.41
2022-10-04T13:48:12.544Z,23.43
2022-10-04T13:51:05.032Z,23.46
2022-10-04T13:54:14.824Z,23.41
2022-10-04T13:57:00.484Z,23.39
2022-10-04T13:59:44.443Z,23.35
2022-10-04T14:02:26.301Z,23.32
2022-10-04T14:05:27.373Z,23.30
2022-10-04T14:08:19.456Z,23.27
2022-10-04T14:11:06.578Z,23.22
2022-10-04T14:13:43.091Z,23.23
2022-10-04T14:16:56.229Z,23.30
2022-10-04T14:19:38.033Z,23.21
2022-10-04T14:22:25.872Z,23.16
2022-10-04T14:25:24.564Z,23.12
2022-10-04T14:28:20.552Z,23.15
2022-10-04T14:31:12.398Z,23.11
2022-10-04T14:34:13.361Z,23.08
2022-10-04T14:37:23.265Z,23.12
2022-10-04T14:40:30.648Z,23.10
2022-10-04T14:43:17.425Z,23.13
2022-10-04T14:46:22.839Z,23.03
2022-10-04T14:49:14.194Z,23.05
2022-10-04T14:52:02.399Z,23.02
2022-10-04T14:54:35.320Z,23.04
2022-10-04T14:57:19.460Z,22.97
2022-10-04T14:59:46.128Z,22.97
2022-10-04T15:02:31.738Z,22.97
2022-10-04T15:04:58.347Z,22.94
2022-10-04T15:07:54.554Z,22.96
2022-10-04T15:10:46.147Z,22.98
2022-10-04T15:13:39.722Z,23.06
2022-10-04T15:16:28.345Z,23.04
2022-10-04T15:19:04.385Z,23.01
2022-10-04T15:21:40.302Z,23.06
2022-10-04T15:24:16.000Z,23.04
2022-10-04T15:27:22.872Z,22.94
2022-10-04T15:30:23.917Z,22.85
2022-10-04T15:33:00.270Z,22.83
2022-10-04T15:35:46.539Z,22.76
2022-10-04T15:38:34.388Z,22.83
2022-10-04T15:41:06.727Z,22.81
2022-10-04T15:43:43.983Z,22.69
2022-10-04T15:46:34.144Z,22.71
2022-10-04T15:49:19.857Z,22.71
2022-10-04T15:52:23.080Z,22.65
2022-10-04T15:55:14.128Z,22.61
2022-10-04T15:57:52.882Z,22.63
2022-10-04T16:00:37.790Z,22.69
2022-10-04T16:03:36.683Z,22.64
2022-10-04T16:06:42.192Z,22.61
2022-10-04T16:09:18.283Z,22.49
2022-10-04T16:11:46.395Z,22.45
2022-10-04T16:14:28.281Z,22.45
2022-10-04T16:17:40.178Z,22.37
2022-10-04T16:20:26.335Z,22.37
2022-10-04T16:23:24.397Z,22.42
2022-10-04T16:25:53.435Z,22.34
2022-10-04T16:28:48.862Z,22.38
2022-10-04T16:31:38.404Z,22.30
2022-10-04T16:34:46.288Z,22.27
2022-10-04T16:37:17.017Z,22.17
2022-10-04T16:40:02.537Z,22.15
2022-10-04T16:42:40.109Z,22.13
2022-10-04T16:45:08.187Z,22.07
2022-10-04T16:47:39.537Z,22.06
2022-10-04T16:50:13.189Z,21.97
2022-10-04T16:52:48.460Z,21.94
2022-10-04T16:55:56.181Z,21.94
2022-10-04T16:58:33.555Z,21.84
2022-10-04T17:03:39.001Z,21.72
2022-10-04T17:06:13.558Z,21.71
2022-10-04T17:09:07.064Z,21.71
2022-10-04T17:11:59.659Z,21.58
2022-10-04T17:14:51.438Z,21.58
2022-10-04T17:17:32.459Z,21.52
2022-10-04T17:20:38.540Z,21.50
2022-10-04T17:23:36.049Z,21.44
2022-10-04T17:26:38.894Z,21.40
2022-10-04T17:29:34.947Z,21.39
2022-10-04T17:32:04.894Z,21.36
2022-10-04T17:34:53.165Z,21.32
2022-10-04T17:37:58.641Z,21.27
2022-10-04T17:40:48.618Z,21.24
2022-10-04T17:43:35.551Z,21.25
2022-10-04T17:46:44.700Z,21.26
2022-10-04T17:49:48.955Z,21.29
2022-10-04T17:52:40.047Z,21.33
2022-10-04T17:55:21.721Z,21.42
2022-10-04T17:58:13.911Z,21.42
2022-10-04T18:00:55.160Z,21.41
2022-10-04T18:03:37.349Z,21.35
2022-10-04T18:07:12.767Z,21.32
2022-10-04T18:09:52.761Z,21.32
2022-10-04T18:12:58.166Z,21.27
2022-10-04T18:15:48.494Z,21.25
2022-10-04T18:18:23.411Z,21.20
2022-10-04T18:21:05.404Z,21.24
2022-10-04T18:23:39.555Z,21.28
2022-10-04T18:26:17.603Z,21.22
2022-10-04T18:28:45.803Z,21.17
2022-10-04T18:31:30.970Z,21.17
2022-10-04T18:34:02.753Z,21.09
2022-10-04T18:36:45.962Z,21.01
2022-10-04T18:39:13.452Z,20.93
2022-10-04T18:41:54.083Z,20.97
2022-10-04T18:44:29.196Z,21.00
2022-10-04T18:46:59.892Z,20.99
2022-10-04T18:49:43.969Z,21.03
2022-10-04T18:52:12.196Z,21.06
2022-10-04T18:54:54.422Z,21.05
2022-10-04T18:57:34.179Z,21.05
2022-10-04T19:00:30.182Z,21.01
2022-10-04T19:03:03.717Z,20.85
2022-10-04T19:05:34.848Z,20.83
2022-10-04T19:08:19.230Z,20.80
2022-10-04T19:11:00.278Z,20.73
2022-10-04T19:13:40.088Z,20.71
2022-10-04T19:16:22.801Z,20.61
2022-10-04T19:19:17.590Z,20.55
2022-10-04T19:22:15.944Z,20.55
2022-10-04T19:24:52.141Z,20.54
2022-10-04T19:27:32.543Z,20.43
2022-10-04T19:30:24.615Z,20.36
2022-10-04T19:33:13.963Z,20.33
2022-10-04T19:35:51.403Z,20.28
2022-10-04T19:38:23.981Z,20.32
2022-10-04T19:40:58.818Z,20.27
2022-10-04T19:43:59.249Z,20.31
2022-10-04T19:46:35.610Z,20.31
2022-10-04T19:49:10.155Z,20.29
2022-10-04T19:51:51.684Z,20.20
2022-10-04T19:54:27.389Z,20.15
2022-10-04T19:56:58.247Z,20.10
2022-10-04T19:59:28.564Z,20.08
2022-10-04T20:01:55.980Z,20.05
2022-10-04T20:04:43.842Z,20.10
2022-10-04T20:07:38.368Z,20.03
2022-10-04T20:10:17.947Z,20.00
2022-10-04T20:13:21.738Z,20.00
2022-10-04T20:15:54.548Z,19.99
2022-10-04T20:18:33.589Z,20.03
2022-10-04T20:21:00.934Z,20.04
2022-10-04T20:23:49.073Z,20.06
2022-10-04T20:27:21.582Z,20.07
2022-10-04T20:29:55.322Z,19.99
2022-10-04T20:32:33.790Z,19.94
2022-10-04T20:35:03.486Z,19.84
2022-10-04T20:37:45.737Z,19.78
2022-10-04T20:40:24.913Z,19.82
2022-10-04T20:43:13.599Z,19.84
2022-10-04T20:45:52.259Z,19.86
2022-10-04T20:48:24.226Z,19.83
2022-10-04T20:50:52.308Z,19.80
2022-10-04T20:53:26.032Z,19.74
2022-10-04T20:56:29.010Z,19.80
2022-10-04T20:59:00.500Z,19.70
2022-10-04T21:01:35.621Z,19.68
2022-10-04T21:04:32.055Z,19.75
2022-10-04T21:06:59.523Z,19.64
2022-10-04T21:09:27.856Z,19.64
2022-10-04T21:11:56.028Z,19.69
2022-10-04T21:14:23.812Z,19.64
2022-10-04T21:16:53.891Z,19.62
2022-10-04T21:19:49.584Z,19.65
2022-10-04T21:22:19.046Z,19.67
2022-10-04T21:24:48.585Z,19.68
2022-10-04T21:27:37.866Z,19.64
2022-10-04T21:30:08.072Z,19.52
2022-10-04T21:32:36.802Z,19.50
2022-10-04T21:35:05.640Z,19.55
2022-10-04T21:37:33.311Z,19.50
2022-10-04T21:40:00.182Z,19.45
2022-10-04T21:42:26.936Z,19.42
2022-10-04T21:44:53.595Z,19.41
2022-10-04T21:47:23.588Z,19.44
2022-10-04T21:49:51.885Z,19.55
2022-10-04T21:52:20.206Z,19.56
2022-10-04T21:54:47.049Z,19.56
2022-10-04T21:57:15.674Z,19.52
2022-10-04T21:59:42.315Z,19.48
2022-10-04T22:02:09.195Z,19.56
2022-10-04T22:04:38.139Z,19.52
2022-10-04T22:07:04.991Z,19.45
2022-10-04T22:09:33.262Z,19.47
2022-10-04T22:11:59.831Z,19.48
2022-10-04T22:14:26.434Z,19.50
2022-10-04T22:16:53.332Z,19.54
2022-10-04T22:19:19.997Z,19.55
2022-10-04T22:21:46.553Z,19.58
2022-10-04T22:24:18.101Z,19.58
2022-10-04T22:26:45.317Z,19.46
2022-10-04T22:29:17.488Z,19.47
2022-10-04T22:31:50.839Z,19.43
2022-10-04T22:34:22.852Z,19.32
2022-10-04T22:36:52.081Z,19.29
2022-10-04T22:39:20.444Z,19.38
2022-10-04T22:42:00.217Z,19.36
2022-10-04T22:44:35.405Z,19.28
2022-10-04T22:47:03.086Z,19.26
2022-10-04T22:49:32.800Z,19.28
2022-10-04T22:52:01.892Z,19.28
2022-10-04T22:54:32.462Z,19.29
2022-10-04T22:56:59.617Z,19.22
2022-10-04T22:59:39.394Z,19.19
2022-10-04T23:02:10.914Z,19.22
2022-10-04T23:04:38.059Z,19.19
2022-10-04T23:07:04.650Z,19.19
2022-10-04T23:09:31.333Z,19.17
2022-10-04T23:11:57.978Z,19.07
2022-10-04T23:14:24.699Z,19.07
2022-10-04T23:16:51.393Z,19.10
2022-10-04T23:19:20.233Z,19.09
2022-10-04T23:21:50.213Z,19.04
2022-10-04T23:24:21.820Z,19.03
2022-10-04T23:26:57.518Z,18.93
2022-10-04T23:29:32.011Z,18.88
2022-10-04T23:31:58.671Z,18.96
2022-10-04T23:34:55.686Z,18.89
2022-10-04T23:37:30.473Z,18.81
2022-10-04T23:39:57.213Z,18.86
2022-10-04T23:42:31.663Z,18.80
2022-10-04T23:45:00.494Z,18.72
2022-10-04T23:47:34.074Z,18.83
2022-10-04T23:50:02.580Z,18.84
2022-10-04T23:52:37.267Z,18.84
2022-10-04T23:55:16.759Z,18.83
2022-10-04T23:57:45.042Z,18.76
